Time;durP1;ratioP1;P1;durP2;ratioP2;P2;SDS_P1;SDS_P2;PMS_P1;PMS_P2;Temp;Humidity;BMP_temperature;BMP_pressure;BME280_temperature;BME280_humidity;BME280_pressure;Samples;Min_cycle;Max_cycle;Signal;HPM_P1;HPM_P2
2021/03/07 00:00:56;;;;;;;;;;;;;;;;;;4939663;28;20009;-67
2021/03/07 00:03:22;;;;;;;;;;;;;;;;;;4940507;28;20299;-67
2021/03/07 00:05:49;;;;;;;;;;;;;;;;;;4944549;29;20012;-67
2021/03/07 00:08:15;;;;;;;;;;;;;;;;;;4943811;29;20025;-67
2021/03/07 00:10:42;;;;;;;;;;;;;;;;;;4952070;28;20402;-67
2021/03/07 00:13:08;;;;;;;;;;;;;;;;;;4946214;28;19956;-67
2021/03/07 00:15:35;;;;;;;;;;;;;;;;;;4946938;28;19933;-67
2021/03/07 00:18:01;;;;;;;;;;;;;;;;;;4940010;29;19982;-68
2021/03/07 00:20:28;;;;;;;;;;;;;;;;;;4942782;28;19933;-67
2021/03/07 00:22:54;;;;;;;;;;;;;;;;;;4946437;28;19933;-68
2021/03/07 00:25:21;;;;;;;;;;;;;;;;;;4943579;28;19926;-67
2021/03/07 00:27:47;;;;;;;;;;;;;;;;;;4952902;28;20377;-67
2021/03/07 00:30:14;;;;;;;;;;;;;;;;;;4940272;29;19927;-67
2021/03/07 00:32:40;;;;;;;;;;;;;;;;;;4944934;29;19927;-67
2021/03/07 00:35:07;;;;;;;;;;;;;;;;;;4938640;29;19927;-67
2021/03/07 00:37:33;;;;;;;;;;;;;;;;;;4940780;29;20447;-67
2021/03/07 00:40:00;;;;;;;;;;;;;;;;;;4947270;29;20018;-67
2021/03/07 00:42:26;;;;;;;;;;;;;;;;;;4947477;29;19935;-67
2021/03/07 00:44:53;;;;;;;;;;;;;;;;;;4944682;29;20021;-68
2021/03/07 00:47:19;;;;;;;;;;;;;;;;;;4942585;29;19930;-67
2021/03/07 00:49:46;;;;;;;;;;;;;;;;;;4943321;28;20374;-67
2021/03/07 00:52:12;;;;;;;;;;;;;;;;;;4946866;29;20021;-67
2021/03/07 00:54:39;;;;;;;;;;;;;;;;;;4935354;29;19931;-67
2021/03/07 00:57:05;;;;;;;;;;;;;;;;;;4944156;28;19927;-67
2021/03/07 00:59:32;;;;;;;;;;;;;;;;;;4942129;28;19974;-67
2021/03/07 01:01:58;;;;;;;;;;;;;;;;;;4935903;29;19927;-67
2021/03/07 01:04:25;;;;;;;;;;;;;;;;;;4938564;28;19933;-67
2021/03/07 01:06:51;;;;;;;;;;;;;;;;;;4953362;28;19958;-68
2021/03/07 01:09:18;;;;;;;;;;;;;;;;;;4941626;28;19973;-68
2021/03/07 01:11:44;;;;;;;;;;;;;;;;;;4938786;29;21081;-67
2021/03/07 01:14:11;;;;;;;;;;;;;;;;;;4945920;28;19937;-67
2021/03/07 01:16:37;;;;;;;;;;;;;;;;;;4943605;29;19933;-68
2021/03/07 01:19:04;;;;;;;;;;;;;;;;;;4942766;28;19930;-68
2021/03/07 01:21:30;;;;;;;;;;;;;;;;;;4944062;29;19926;-67
2021/03/07 01:23:57;;;;;;;;;;;;;;;;;;4949065;28;20017;-67
2021/03/07 01:26:23;;;;;;;;;;;;;;;;;;4939221;28;20010;-67
2021/03/07 01:28:50;;;;;;;;;;;;;;;;;;4948660;28;19927;-68
2021/03/07 01:31:16;;;;;;;;;;;;;;;;;;4946496;28;19931;-67
2021/03/07 01:33:42;;;;;;;;;;;;;;;;;;4939853;29;19974;-67
2021/03/07 01:36:09;;;;;;;;;;;;;;;;;;4944466;28;19931;-67
2021/03/07 01:38:35;;;;;;;;;;;;;;;;;;4953197;28;20295;-67
2021/03/07 01:41:02;;;;;;;;;;;;;;;;;;4942013;29;19933;-67
2021/03/07 01:43:28;;;;;;;;;;;;;;;;;;4941234;28;19953;-67
2021/03/07 01:45:55;;;;;;;;;;;;;;;;;;4947363;29;19931;-67
2021/03/07 01:48:21;;;;;;;;;;;;;;;;;;4939744;29;20435;-67
2021/03/07 01:50:48;;;;;;;;;;;;;;;;;;4945756;29;19935;-67
2021/03/07 01:53:18;;;;;;;;;;;;;;;;;;4934560;29;19935;-67
2021/03/07 01:55:44;;;;;;;;;;;;;;;;;;4934564;29;19934;-67
2021/03/07 01:58:11;;;;;;;;;;;;;;;;;;4934657;29;19927;-67
2021/03/07 02:00:37;;;;;;;;;;;;;;;;;;4937069;29;19933;-67
2021/03/07 02:03:04;;;;;;;;;;;;;;;;;;4946557;29;19941;-66
2021/03/07 02:05:30;;;;;;;;;;;;;;;;;;4939758;28;20315;-66
2021/03/07 02:07:57;;;;;;;;;;;;;;;;;;4935967;29;19933;-66
2021/03/07 02:10:23;;;;;;;;;;;;;;;;;;4949528;29;20264;-66
2021/03/07 02:12:50;;;;;;;;;;;;;;;;;;4943053;29;20013;-65
2021/03/07 02:15:16;;;;;;;;;;;;;;;;;;4938587;29;19930;-66
2021/03/07 02:17:42;;;;;;;;;;;;;;;;;;4943547;29;20314;-66
2021/03/07 02:20:09;;;;;;;;;;;;;;;;;;4941580;28;19934;-66
2021/03/07 02:22:35;;;;;;;;;;;;;;;;;;4935725;29;19958;-67
2021/03/07 02:25:02;;;;;;;;;;;;;;;;;;4939238;29;19933;-66
2021/03/07 02:27:28;;;;;;;;;;;;;;;;;;4945001;29;19952;-66
2021/03/07 02:29:55;;;;;;;;;;;;;;;;;;4948540;28;20125;-67
2021/03/07 02:32:21;;;;;;;;;;;;;;;;;;4939467;28;19927;-66
2021/03/07 02:34:48;;;;;;;;;;;;;;;;;;4939138;29;19935;-66
2021/03/07 02:37:14;;;;;;;;;;;;;;;;;;4946341;28;19927;-66
2021/03/07 02:39:41;;;;;;;;;;;;;;;;;;4938808;29;19933;-67
2021/03/07 02:42:08;;;;;;;;;;;;;;;;;;4945743;29;19946;-68
2021/03/07 02:44:34;;;;;;;;;;;;;;;;;;4941197;29;19927;-67
2021/03/07 02:47:01;;;;;;;;;;;;;;;;;;4941559;28;19926;-68
2021/03/07 02:49:27;;;;;;;;;;;;;;;;;;4945286;28;19989;-66
2021/03/07 02:51:54;;;;;;;;;;;;;;;;;;4942179;29;20004;-66
2021/03/07 02:54:20;;;;;;;;;;;;;;;;;;4947640;28;20357;-67
2021/03/07 02:56:47;;;;;;;;;;;;;;;;;;4940929;28;20482;-66
2021/03/07 02:59:13;;;;;;;;;;;;;;;;;;4949898;29;19927;-66
2021/03/07 03:01:40;;;;;;;;;;;;;;;;;;4945318;28;20444;-66
2021/03/07 03:04:06;;;;;;;;;;;;;;;;;;4948278;28;19933;-67
2021/03/07 03:06:33;;;;;;;;;;;;;;;;;;4941150;28;19927;-66
2021/03/07 03:08:59;;;;;;;;;;;;;;;;;;4938102;29;19931;-67
2021/03/07 03:11:26;;;;;;;;;;;;;;;;;;4948459;29;19926;-67
2021/03/07 03:13:52;;;;;;;;;;;;;;;;;;4937419;28;19926;-67
2021/03/07 03:16:19;;;;;;;;;;;;;;;;;;4943474;28;19967;-67
2021/03/07 03:18:45;;;;;;;;;;;;;;;;;;4940868;28;19926;-66
2021/03/07 03:21:12;;;;;;;;;;;;;;;;;;4952439;28;19927;-66
2021/03/07 03:23:38;;;;;;;;;;;;;;;;;;4946714;28;19931;-66
2021/03/07 03:26:05;;;;;;;;;;;;;;;;;;4946327;29;20017;-66
2021/03/07 03:28:31;;;;;;;;;;;;;;;;;;4945206;28;20009;-66
2021/03/07 03:30:58;;;;;;;;;;;;;;;;;;4939387;29;19927;-66
2021/03/07 03:33:24;;;;;;;;;;;;;;;;;;4946867;29;19927;-67
2021/03/07 03:35:51;;;;;;;;;;;;;;;;;;4958651;28;19926;-66
2021/03/07 03:38:17;;;;;;;;;;;;;;;;;;4944489;28;20013;-66
2021/03/07 03:40:44;;;;;;;;;;;;;;;;;;4950666;29;19933;-66
2021/03/07 03:45:39;;;;;;;;;;;;;;;;;;4948476;29;20306;-67
2021/03/07 03:48:06;;;;;;;;;;;;;;;;;;4955041;28;19930;-66
2021/03/07 03:50:32;;;;;;;;;;;;;;;;;;4954136;29;20057;-66
2021/03/07 03:52:59;;;;;;;;;;;;;;;;;;4954546;28;19948;-66
2021/03/07 03:55:25;;;;;;;;;;;;;;;;;;4947686;28;19974;-66
2021/03/07 03:57:52;;;;;;;;;;;;;;;;;;4959250;29;19970;-66
2021/03/07 04:00:18;;;;;;;;;;;;;;;;;;4963747;29;20391;-65
2021/03/07 04:02:45;;;;;;;;;;;;;;;;;;4956807;28;19937;-66
2021/03/07 04:05:11;;;;;;;;;;;;;;;;;;4952047;28;20009;-66
2021/03/07 04:07:38;;;;;;;;;;;;;;;;;;4952487;28;19930;-66
2021/03/07 04:10:04;;;;;;;;;;;;;;;;;;4956888;28;20321;-65
2021/03/07 04:12:31;;;;;;;;;;;;;;;;;;4957402;28;20013;-66
2021/03/07 04:14:57;;;;;;;;;;;;;;;;;;4950451;28;19948;-66
2021/03/07 04:17:24;;;;;;;;;;;;;;;;;;4944274;28;19937;-65
2021/03/07 04:19:50;;;;;;;;;;;;;;;;;;4950619;29;19942;-66
2021/03/07 04:22:17;;;;;;;;;;;;;;;;;;4950336;28;20406;-66
2021/03/07 04:24:43;;;;;;;;;;;;;;;;;;4951059;28;19934;-66
2021/03/07 04:27:10;;;;;;;;;;;;;;;;;;4953642;28;20291;-66
2021/03/07 04:29:37;;;;;;;;;;;;;;;;;;4952081;28;19973;-66
2021/03/07 04:32:03;;;;;;;;;;;;;;;;;;4949089;28;19927;-66
2021/03/07 04:34:30;;;;;;;;;;;;;;;;;;4951537;29;19934;-65
2021/03/07 04:36:56;;;;;;;;;;;;;;;;;;4948881;28;19957;-66
2021/03/07 04:39:23;;;;;;;;;;;;;;;;;;4949939;29;19958;-66
2021/03/07 04:41:49;;;;;;;;;;;;;;;;;;4981116;28;19993;-65
2021/03/07 04:44:16;;;;;;;;;;;;;;;;;;4965611;29;20018;-66
2021/03/07 04:46:42;;;;;;;;;;;;;;;;;;4965130;28;19934;-66
2021/03/07 04:49:09;;;;;;;;;;;;;;;;;;4952499;29;19986;-66
2021/03/07 04:51:35;;;;;;;;;;;;;;;;;;4963924;28;20024;-65
2021/03/07 04:54:02;;;;;;;;;;;;;;;;;;4966585;28;19990;-66
2021/03/07 04:56:28;;;;;;;;;;;;;;;;;;4963923;28;19926;-65
2021/03/07 04:58:55;;;;;;;;;;;;;;;;;;4956191;28;19941;-66
2021/03/07 05:01:21;;;;;;;;;;;;;;;;;;4953352;28;19926;-67
2021/03/07 05:03:48;;;;;;;;;;;;;;;;;;4955709;29;20464;-66
2021/03/07 05:06:14;;;;;;;;;;;;;;;;;;4949694;28;20411;-66
2021/03/07 05:08:41;;;;;;;;;;;;;;;;;;4953979;28;20025;-66
2021/03/07 05:11:07;;;;;;;;;;;;;;;;;;4955559;28;19927;-67
2021/03/07 05:13:34;;;;;;;;;;;;;;;;;;4948545;28;19933;-66
2021/03/07 05:16:00;;;;;;;;;;;;;;;;;;4948905;28;20026;-67
2021/03/07 05:18:27;;;;;;;;;;;;;;;;;;4947287;28;19926;-66
2021/03/07 05:20:53;;;;;;;;;;;;;;;;;;4945231;29;19927;-67
2021/03/07 05:23:20;;;;;;;;;;;;;;;;;;4948905;29;20004;-66
2021/03/07 05:25:46;;;;;;;;;;;;;;;;;;4954523;29;19933;-66
2021/03/07 05:28:13;;;;;;;;;;;;;;;;;;4950901;28;19977;-66
2021/03/07 05:30:39;;;;;;;;;;;;;;;;;;4947928;28;20342;-66
2021/03/07 05:33:06;;;;;;;;;;;;;;;;;;4953643;28;20031;-66
2021/03/07 05:35:32;;;;;;;;;;;;;;;;;;4955351;29;20298;-66
2021/03/07 05:37:58;;;;;;;;;;;;;;;;;;4951770;28;19941;-66
2021/03/07 05:40:25;;;;;;;;;;;;;;;;;;4956275;28;20308;-67
2021/03/07 05:42:51;;;;;;;;;;;;;;;;;;4949306;28;19927;-66
2021/03/07 05:45:18;;;;;;;;;;;;;;;;;;4948873;29;19933;-66
2021/03/07 05:47:44;;;;;;;;;;;;;;;;;;4944775;29;19930;-66
2021/03/07 05:50:11;;;;;;;;;;;;;;;;;;4955602;28;20014;-66
2021/03/07 05:52:37;;;;;;;;;;;;;;;;;;4947823;28;20321;-66
2021/03/07 05:55:04;;;;;;;;;;;;;;;;;;4942960;28;20029;-66
2021/03/07 05:57:31;;;;;;;;;;;;;;;;;;4953710;28;19933;-66
2021/03/07 05:59:57;;;;;;;;;;;;;;;;;;4952420;28;19930;-68
2021/03/07 06:02:24;;;;;;;;;;;;;;;;;;4941174;28;20112;-66
2021/03/07 06:04:50;;;;;;;;;;;;;;;;;;4946613;28;20010;-66
2021/03/07 06:07:17;;;;;;;;;;;;;;;;;;4954907;28;20010;-66
2021/03/07 06:09:43;;;;;;;;;;;;;;;;;;4952803;28;20341;-66
2021/03/07 06:12:10;;;;;;;;;;;;;;;;;;4949820;28;19966;-67
2021/03/07 06:14:36;;;;;;;;;;;;;;;;;;4950883;28;19982;-66
2021/03/07 06:17:03;;;;;;;;;;;;;;;;;;4949663;29;20433;-66
2021/03/07 06:19:29;;;;;;;;;;;;;;;;;;4947508;29;19926;-66
2021/03/07 06:21:56;;;;;;;;;;;;;;;;;;4953858;28;19926;-66
2021/03/07 06:24:22;;;;;;;;;;;;;;;;;;4953700;28;20018;-66
2021/03/07 06:26:49;;;;;;;;;;;;;;;;;;4954933;28;19954;-65
2021/03/07 06:29:15;;;;;;;;;;;;;;;;;;4950832;28;19931;-66
2021/03/07 06:31:42;;;;;;;;;;;;;;;;;;4951410;28;19927;-68
2021/03/07 06:34:08;;;;;;;;;;;;;;;;;;4950399;28;19961;-66
2021/03/07 06:36:36;;;;;;;;;;;;;;;;;;4947695;28;19948;-65
2021/03/07 06:39:02;;;;;;;;;;;;;;;;;;4955117;28;20021;-66
2021/03/07 06:41:29;;;;;;;;;;;;;;;;;;4954080;28;19926;-66
2021/03/07 06:43:55;;;;;;;;;;;;;;;;;;4951010;28;19927;-66
2021/03/07 06:46:22;;;;;;;;;;;;;;;;;;4951211;28;20373;-67
2021/03/07 06:48:48;;;;;;;;;;;;;;;;;;4945752;28;20380;-68
2021/03/07 06:51:15;;;;;;;;;;;;;;;;;;4946134;29;19935;-67
2021/03/07 06:53:41;;;;;;;;;;;;;;;;;;4950782;28;19932;-65
2021/03/07 06:56:08;;;;;;;;;;;;;;;;;;4947173;29;19927;-66
2021/03/07 06:58:34;;;;;;;;;;;;;;;;;;4944243;28;20034;-67
2021/03/07 07:01:01;;;;;;;;;;;;;;;;;;4949756;28;20435;-66
2021/03/07 07:03:31;;;;;;;;;;;;;;;;;;4949911;29;19934;-66
2021/03/07 07:05:57;;;;;;;;;;;;;;;;;;4947707;28;20298;-66
2021/03/07 07:08:24;;;;;;;;;;;;;;;;;;4951241;28;19969;-66
2021/03/07 07:10:50;;;;;;;;;;;;;;;;;;4946584;28;19985;-65
2021/03/07 07:13:17;;;;;;;;;;;;;;;;;;4947532;29;19926;-66
2021/03/07 07:15:43;;;;;;;;;;;;;;;;;;4947605;28;20280;-67
2021/03/07 07:18:10;;;;;;;;;;;;;;;;;;4946486;29;19927;-66
2021/03/07 07:20:36;;;;;;;;;;;;;;;;;;4950137;28;19927;-66
2021/03/07 07:23:03;;;;;;;;;;;;;;;;;;4945161;28;20285;-66
2021/03/07 07:25:29;;;;;;;;;;;;;;;;;;4944610;29;19933;-66
2021/03/07 07:27:56;;;;;;;;;;;;;;;;;;4950519;28;19926;-66
2021/03/07 07:30:22;;;;;;;;;;;;;;;;;;4954628;29;19934;-67
2021/03/07 07:32:49;;;;;;;;;;;;;;;;;;4951238;28;19926;-66
2021/03/07 07:35:15;;;;;;;;;;;;;;;;;;4950295;28;19934;-66
2021/03/07 07:37:42;;;;;;;;;;;;;;;;;;4948801;28;20446;-67
2021/03/07 07:40:08;;;;;;;;;;;;;;;;;;4950532;28;19927;-67
2021/03/07 07:42:35;;;;;;;;;;;;;;;;;;4951000;28;20512;-67
2021/03/07 07:45:02;;;;;;;;;;;;;;;;;;4951016;28;19926;-67
2021/03/07 07:47:28;;;;;;;;;;;;;;;;;;4948223;28;19974;-67
2021/03/07 07:49:55;;;;;;;;;;;;;;;;;;4948561;28;19938;-67
2021/03/07 07:52:21;;;;;;;;;;;;;;;;;;4941874;28;20310;-66
2021/03/07 07:54:48;;;;;;;;;;;;;;;;;;4945634;28;19926;-65
2021/03/07 07:57:14;;;;;;;;;;;;;;;;;;4950907;29;21625;-66
2021/03/07 07:59:41;;;;;;;;;;;;;;;;;;4946667;28;19932;-67
2021/03/07 08:02:07;;;;;;;;;;;;;;;;;;4956890;28;19948;-67
2021/03/07 08:04:34;;;;;;;;;;;;;;;;;;4948572;28;20017;-66
2021/03/07 08:07:01;;;;;;;;;;;;;;;;;;4949131;28;19941;-66
2021/03/07 08:09:27;;;;;;;;;;;;;;;;;;4954064;28;19926;-67
2021/03/07 08:11:54;;;;;;;;;;;;;;;;;;4955054;29;20597;-65
2021/03/07 08:14:20;;;;;;;;;;;;;;;;;;4950814;28;20029;-66
2021/03/07 08:16:47;;;;;;;;;;;;;;;;;;4948944;28;19958;-67
2021/03/07 08:19:13;;;;;;;;;;;;;;;;;;4950044;29;19931;-65
2021/03/07 08:21:40;;;;;;;;;;;;;;;;;;4948173;28;19934;-65
2021/03/07 08:24:08;;;;;;;;;;;;;;;;;;4953475;28;20073;-66
2021/03/07 08:26:34;;;;;;;;;;;;;;;;;;4951738;28;19926;-65
2021/03/07 08:29:01;;;;;;;;;;;;;;;;;;4952715;28;19926;-66
2021/03/07 08:31:27;;;;;;;;;;;;;;;;;;4954522;28;20368;-65
2021/03/07 08:33:54;;;;;;;;;;;;;;;;;;4954324;28;19937;-67
2021/03/07 08:36:20;;;;;;;;;;;;;;;;;;4952334;28;19969;-67
2021/03/07 08:38:47;;;;;;;;;;;;;;;;;;4951191;28;19973;-66
2021/03/07 08:41:13;;;;;;;;;;;;;;;;;;4952042;28;20501;-66
2021/03/07 08:43:40;;;;;;;;;;;;;;;;;;4943617;28;19949;-66
2021/03/07 08:46:08;;;;;;;;;;;;;;;;;;4949554;28;19933;-67
2021/03/07 08:48:34;;;;;;;;;;;;;;;;;;4945827;28;19981;-67
2021/03/07 08:51:01;;;;;;;;;;;;;;;;;;4950406;28;19930;-66
2021/03/07 08:53:27;;;;;;;;;;;;;;;;;;4953629;28;20017;-66
2021/03/07 08:55:54;;;;;;;;;;;;;;;;;;4951821;28;20021;-66
2021/03/07 08:58:20;;;;;;;;;;;;;;;;;;4950616;28;20029;-65
2021/03/07 09:00:47;;;;;;;;;;;;;;;;;;4946599;28;19926;-65
2021/03/07 09:03:13;;;;;;;;;;;;;;;;;;4945640;29;20475;-67
2021/03/07 09:05:40;;;;;;;;;;;;;;;;;;4954913;28;19933;-68
2021/03/07 09:08:06;;;;;;;;;;;;;;;;;;4950732;28;20025;-67
2021/03/07 09:10:33;;;;;;;;;;;;;;;;;;4950233;28;19944;-67
2021/03/07 09:12:59;;;;;;;;;;;;;;;;;;4949080;28;19932;-67
2021/03/07 09:15:26;;;;;;;;;;;;;;;;;;4945430;28;20314;-67
2021/03/07 09:17:52;;;;;;;;;;;;;;;;;;4956202;29;19997;-67
2021/03/07 09:20:19;;;;;;;;;;;;;;;;;;4962369;28;20302;-67
2021/03/07 09:22:45;;;;;;;;;;;;;;;;;;4962598;29;19978;-67
2021/03/07 09:25:12;;;;;;;;;;;;;;;;;;4951683;28;19961;-68
2021/03/07 09:27:38;;;;;;;;;;;;;;;;;;4950644;29;20013;-67
2021/03/07 09:30:05;;;;;;;;;;;;;;;;;;4951143;28;19926;-68
2021/03/07 09:32:31;;;;;;;;;;;;;;;;;;4953740;28;19997;-68
2021/03/07 09:34:58;;;;;;;;;;;;;;;;;;4947829;28;19930;-67
2021/03/07 09:37:24;;;;;;;;;;;;;;;;;;4947473;28;19957;-67
2021/03/07 09:39:51;;;;;;;;;;;;;;;;;;4949617;28;19965;-67
2021/03/07 09:42:17;;;;;;;;;;;;;;;;;;4946905;28;20029;-67
2021/03/07 09:44:44;;;;;;;;;;;;;;;;;;4951271;28;19930;-67
2021/03/07 09:47:10;;;;;;;;;;;;;;;;;;4949824;28;19930;-68
2021/03/07 09:49:37;;;;;;;;;;;;;;;;;;4946634;28;20029;-68
2021/03/07 09:52:03;;;;;;;;;;;;;;;;;;4955607;28;20414;-67
2021/03/07 09:54:30;;;;;;;;;;;;;;;;;;4950626;28;20014;-67
2021/03/07 09:56:56;;;;;;;;;;;;;;;;;;4949317;28;19926;-67
2021/03/07 09:59:23;;;;;;;;;;;;;;;;;;4951654;29;19927;-69
2021/03/07 10:01:49;;;;;;;;;;;;;;;;;;4948650;28;19926;-67
2021/03/07 10:04:16;;;;;;;;;;;;;;;;;;4950004;28;19980;-66
2021/03/07 10:06:42;;;;;;;;;;;;;;;;;;4948791;29;20505;-67
2021/03/07 10:09:09;;;;;;;;;;;;;;;;;;4949517;28;19952;-67
2021/03/07 10:11:35;;;;;;;;;;;;;;;;;;4953259;28;19927;-68
2021/03/07 10:14:02;;;;;;;;;;;;;;;;;;4950697;28;20032;-67
2021/03/07 10:16:28;;;;;;;;;;;;;;;;;;4951234;28;20348;-65
2021/03/07 10:18:55;;;;;;;;;;;;;;;;;;4942674;28;19965;-67
2021/03/07 10:21:21;;;;;;;;;;;;;;;;;;4947779;28;20291;-66
2021/03/07 10:23:48;;;;;;;;;;;;;;;;;;4947579;29;19927;-66
2021/03/07 10:26:14;;;;;;;;;;;;;;;;;;4945081;28;19973;-66
2021/03/07 10:28:43;;;;;;;;;;;;;;;;;;4945146;28;19981;-66
2021/03/07 10:31:09;;;;;;;;;;;;;;;;;;4948113;28;19927;-66
2021/03/07 10:33:36;;;;;;;;;;;;;;;;;;4947946;28;19927;-66
2021/03/07 10:36:02;;;;;;;;;;;;;;;;;;4946474;28;19973;-67
2021/03/07 10:38:29;;;;;;;;;;;;;;;;;;4943569;28;20021;-64
2021/03/07 10:40:55;;;;;;;;;;;;;;;;;;4948655;28;20372;-66
2021/03/07 10:43:22;;;;;;;;;;;;;;;;;;4944397;28;19926;-68
2021/03/07 10:45:48;;;;;;;;;;;;;;;;;;4944581;28;19928;-65
2021/03/07 10:48:15;;;;;;;;;;;;;;;;;;4945037;28;20530;-67
2021/03/07 10:50:42;;;;;;;;;;;;;;;;;;4947336;29;19927;-65
2021/03/07 10:53:08;;;;;;;;;;;;;;;;;;4945906;28;20344;-64
2021/03/07 10:55:35;;;;;;;;;;;;;;;;;;4941186;28;20065;-67
2021/03/07 10:58:01;;;;;;;;;;;;;;;;;;4946804;28;19993;-66
2021/03/07 11:00:28;;;;;;;;;;;;;;;;;;4947122;29;20018;-67
2021/03/07 11:02:54;;;;;;;;;;;;;;;;;;4946601;28;19930;-65
2021/03/07 11:05:21;;;;;;;;;;;;;;;;;;4944357;29;20311;-65
2021/03/07 11:07:50;;;;;;;;;;;;;;;;;;4946586;28;20018;-65
2021/03/07 11:10:16;;;;;;;;;;;;;;;;;;4948868;28;19986;-68
2021/03/07 11:12:43;;;;;;;;;;;;;;;;;;4946879;28;19927;-66
2021/03/07 11:15:09;;;;;;;;;;;;;;;;;;4950220;28;19931;-66
2021/03/07 11:17:36;;;;;;;;;;;;;;;;;;4950482;28;19927;-66
2021/03/07 11:20:02;;;;;;;;;;;;;;;;;;4944852;28;19927;-66
2021/03/07 11:22:29;;;;;;;;;;;;;;;;;;4945457;28;20158;-67
2021/03/07 11:24:55;;;;;;;;;;;;;;;;;;4945008;28;19926;-66
2021/03/07 11:27:22;;;;;;;;;;;;;;;;;;4948769;28;19926;-66
2021/03/07 11:29:48;;;;;;;;;;;;;;;;;;4949567;28;19926;-66
2021/03/07 11:32:15;;;;;;;;;;;;;;;;;;4944371;29;20307;-66
2021/03/07 11:34:41;;;;;;;;;;;;;;;;;;4948299;28;19937;-67
2021/03/07 11:37:08;;;;;;;;;;;;;;;;;;4950831;28;19970;-66
2021/03/07 11:39:34;;;;;;;;;;;;;;;;;;4950947;28;19939;-67
2021/03/07 11:42:01;;;;;;;;;;;;;;;;;;4955767;28;19927;-65
2021/03/07 11:44:27;;;;;;;;;;;;;;;;;;4948583;28;20305;-65
2021/03/07 11:46:55;;;;;;;;;;;;;;;;;;4953002;28;20551;-66
2021/03/07 11:49:22;;;;;;;;;;;;;;;;;;4955238;29;20322;-66
2021/03/07 11:51:48;;;;;;;;;;;;;;;;;;4954397;28;19985;-67
2021/03/07 11:54:15;;;;;;;;;;;;;;;;;;4954075;28;20018;-66
2021/03/07 11:56:41;;;;;;;;;;;;;;;;;;4954822;28;19954;-65
2021/03/07 11:59:08;;;;;;;;;;;;;;;;;;4947330;29;19973;-67
2021/03/07 12:01:34;;;;;;;;;;;;;;;;;;4954978;28;19926;-66
2021/03/07 12:04:01;;;;;;;;;;;;;;;;;;4948586;28;19933;-66
2021/03/07 12:06:27;;;;;;;;;;;;;;;;;;4951447;28;20021;-67
2021/03/07 12:08:54;;;;;;;;;;;;;;;;;;4947885;28;19936;-66
2021/03/07 12:11:20;;;;;;;;;;;;;;;;;;4955387;29;20306;-67
2021/03/07 12:13:47;;;;;;;;;;;;;;;;;;4954319;28;19927;-66
2021/03/07 12:16:13;;;;;;;;;;;;;;;;;;4954222;28;19931;-68
2021/03/07 12:18:41;;;;;;;;;;;;;;;;;;4953411;28;19941;-67
2021/03/07 12:21:08;;;;;;;;;;;;;;;;;;4953490;29;19927;-67
2021/03/07 12:23:34;;;;;;;;;;;;;;;;;;4953411;28;19949;-68
2021/03/07 12:26:01;;;;;;;;;;;;;;;;;;4953973;28;19926;-66
2021/03/07 12:28:27;;;;;;;;;;;;;;;;;;4950865;28;19948;-65
2021/03/07 12:30:54;;;;;;;;;;;;;;;;;;4952752;28;19930;-66
2021/03/07 12:33:20;;;;;;;;;;;;;;;;;;4954469;28;20021;-66
2021/03/07 12:35:47;;;;;;;;;;;;;;;;;;4948010;28;19927;-66
2021/03/07 12:38:13;;;;;;;;;;;;;;;;;;4955363;28;20022;-67
2021/03/07 12:40:40;;;;;;;;;;;;;;;;;;4953312;28;20017;-66
2021/03/07 12:43:06;;;;;;;;;;;;;;;;;;4952720;28;19947;-66
2021/03/07 12:45:33;;;;;;;;;;;;;;;;;;4953309;28;20061;-66
2021/03/07 12:47:59;;;;;;;;;;;;;;;;;;4949407;28;19934;-66
2021/03/07 12:50:26;;;;;;;;;;;;;;;;;;4952923;28;19927;-66
2021/03/07 12:52:52;;;;;;;;;;;;;;;;;;4952921;28;19926;-66
2021/03/07 12:55:19;;;;;;;;;;;;;;;;;;4955006;28;20029;-65
2021/03/07 12:57:45;;;;;;;;;;;;;;;;;;4953700;28;20019;-65
2021/03/07 13:00:12;;;;;;;;;;;;;;;;;;4953646;28;20081;-66
2021/03/07 13:02:38;;;;;;;;;;;;;;;;;;4948863;28;19927;-66
2021/03/07 13:05:05;;;;;;;;;;;;;;;;;;4955497;28;19926;-67
2021/03/07 13:07:31;;;;;;;;;;;;;;;;;;4950358;28;20061;-66
2021/03/07 13:09:58;;;;;;;;;;;;;;;;;;4949084;28;20350;-68
2021/03/07 13:12:24;;;;;;;;;;;;;;;;;;4954981;28;20237;-67
2021/03/07 13:14:51;;;;;;;;;;;;;;;;;;4953038;28;19926;-66
2021/03/07 13:17:18;;;;;;;;;;;;;;;;;;4954394;28;19927;-66
2021/03/07 13:19:46;;;;;;;;;;;;;;;;;;4958511;28;19970;-66
2021/03/07 13:22:13;;;;;;;;;;;;;;;;;;4955861;28;19937;-66
2021/03/07 13:24:39;;;;;;;;;;;;;;;;;;4945803;28;19946;-67
2021/03/07 13:27:07;;;;;;;;;;;;;;;;;;4950569;28;20029;-67
2021/03/07 13:29:33;;;;;;;;;;;;;;;;;;4954410;29;20410;-66
2021/03/07 13:32:00;;;;;;;;;;;;;;;;;;4953492;28;19927;-66
2021/03/07 13:34:27;;;;;;;;;;;;;;;;;;4953832;28;19977;-66
2021/03/07 13:36:53;;;;;;;;;;;;;;;;;;4953008;28;20029;-67
2021/03/07 13:39:20;;;;;;;;;;;;;;;;;;4951135;28;20493;-65
2021/03/07 13:41:46;;;;;;;;;;;;;;;;;;4951455;29;20387;-67
2021/03/07 13:44:13;;;;;;;;;;;;;;;;;;4954034;28;19930;-67
2021/03/07 13:46:39;;;;;;;;;;;;;;;;;;4951399;28;19962;-66
2021/03/07 13:49:06;;;;;;;;;;;;;;;;;;4949607;29;19927;-66
2021/03/07 13:51:32;;;;;;;;;;;;;;;;;;4954939;28;20017;-66
2021/03/07 13:53:59;;;;;;;;;;;;;;;;;;4962198;28;20352;-66
2021/03/07 13:56:26;;;;;;;;;;;;;;;;;;4961219;28;19982;-66
2021/03/07 13:58:52;;;;;;;;;;;;;;;;;;4962047;29;19974;-67
2021/03/07 14:01:19;;;;;;;;;;;;;;;;;;4964338;28;19974;-66
2021/03/07 14:03:45;;;;;;;;;;;;;;;;;;4962727;28;20012;-67
2021/03/07 14:06:12;;;;;;;;;;;;;;;;;;4960379;28;19926;-67
2021/03/07 14:08:38;;;;;;;;;;;;;;;;;;4953180;29;19937;-66
2021/03/07 14:11:05;;;;;;;;;;;;;;;;;;4962636;29;19937;-68
2021/03/07 14:13:31;;;;;;;;;;;;;;;;;;4963390;28;19926;-66
2021/03/07 14:15:58;;;;;;;;;;;;;;;;;;4957706;29;20553;-66
2021/03/07 14:18:24;;;;;;;;;;;;;;;;;;4954297;28;19930;-66
2021/03/07 14:20:51;;;;;;;;;;;;;;;;;;4954110;28;19930;-68
2021/03/07 14:23:17;;;;;;;;;;;;;;;;;;4955213;28;19926;-66
2021/03/07 14:25:44;;;;;;;;;;;;;;;;;;4954482;28;19962;-66
2021/03/07 14:28:10;;;;;;;;;;;;;;;;;;4951513;28;19927;-66
2021/03/07 14:30:37;;;;;;;;;;;;;;;;;;4953000;28;20355;-66
2021/03/07 14:33:03;;;;;;;;;;;;;;;;;;4951787;28;20246;-65
2021/03/07 14:35:30;;;;;;;;;;;;;;;;;;4953735;28;19934;-67
2021/03/07 14:37:58;;;;;;;;;;;;;;;;;;4953596;29;19933;-67
2021/03/07 14:40:24;;;;;;;;;;;;;;;;;;4957993;28;19933;-65
2021/03/07 14:42:51;;;;;;;;;;;;;;;;;;4955440;28;20021;-66
2021/03/07 14:45:17;;;;;;;;;;;;;;;;;;4961724;28;20025;-67
2021/03/07 14:47:44;;;;;;;;;;;;;;;;;;4959923;28;20403;-66
2021/03/07 14:50:10;;;;;;;;;;;;;;;;;;4957032;28;19949;-66
2021/03/07 14:52:38;;;;;;;;;;;;;;;;;;4958953;28;20015;-67
2021/03/07 14:55:04;;;;;;;;;;;;;;;;;;4956029;28;19927;-68
2021/03/07 14:57:31;;;;;;;;;;;;;;;;;;4956071;28;19926;-67
2021/03/07 14:59:57;;;;;;;;;;;;;;;;;;4953515;28;20402;-65
2021/03/07 15:02:24;;;;;;;;;;;;;;;;;;4949351;28;19926;-66
2021/03/07 15:04:50;;;;;;;;;;;;;;;;;;4956374;28;19933;-66
2021/03/07 15:07:17;;;;;;;;;;;;;;;;;;4953319;28;19934;-65
2021/03/07 15:09:43;;;;;;;;;;;;;;;;;;4952695;28;19930;-65
2021/03/07 15:12:10;;;;;;;;;;;;;;;;;;4954696;29;20322;-66
2021/03/07 15:14:36;;;;;;;;;;;;;;;;;;4954919;28;19994;-66
2021/03/07 15:17:03;;;;;;;;;;;;;;;;;;4956155;29;20298;-66
2021/03/07 15:19:29;;;;;;;;;;;;;;;;;;4948573;28;19927;-67
2021/03/07 15:21:56;;;;;;;;;;;;;;;;;;4952641;28;20053;-66
2021/03/07 15:24:22;;;;;;;;;;;;;;;;;;4952757;28;19937;-65
2021/03/07 15:26:49;;;;;;;;;;;;;;;;;;4953599;28;20367;-65
2021/03/07 15:29:16;;;;;;;;;;;;;;;;;;4951300;28;19930;-66
2021/03/07 15:31:42;;;;;;;;;;;;;;;;;;4947192;28;19931;-67
2021/03/07 15:34:09;;;;;;;;;;;;;;;;;;4942539;29;19926;-68
2021/03/07 15:36:35;;;;;;;;;;;;;;;;;;4949144;29;19958;-65
2021/03/07 15:39:02;;;;;;;;;;;;;;;;;;4950391;28;19966;-65
2021/03/07 15:41:28;;;;;;;;;;;;;;;;;;4951325;28;20013;-67
2021/03/07 15:43:55;;;;;;;;;;;;;;;;;;4952351;28;19926;-64
2021/03/07 15:46:21;;;;;;;;;;;;;;;;;;4957223;29;19966;-65
2021/03/07 15:48:47;;;;;;;;;;;;;;;;;;4953232;29;19926;-66
2021/03/07 15:51:14;;;;;;;;;;;;;;;;;;4958002;28;20384;-67
2021/03/07 15:53:41;;;;;;;;;;;;;;;;;;4952287;29;19935;-67
2021/03/07 15:56:07;;;;;;;;;;;;;;;;;;4954328;28;19926;-64
2021/03/07 15:58:34;;;;;;;;;;;;;;;;;;4955769;28;19953;-66
2021/03/07 16:01:00;;;;;;;;;;;;;;;;;;4948540;28;19930;-64
2021/03/07 16:03:27;;;;;;;;;;;;;;;;;;4959141;28;20386;-65
2021/03/07 16:05:53;;;;;;;;;;;;;;;;;;4956991;28;19954;-66
2021/03/07 16:08:20;;;;;;;;;;;;;;;;;;4958984;29;19961;-66
2021/03/07 16:10:48;;;;;;;;;;;;;;;;;;4957071;28;19935;-65
2021/03/07 16:13:15;;;;;;;;;;;;;;;;;;4951199;28;19997;-66
2021/03/07 16:15:41;;;;;;;;;;;;;;;;;;4951901;28;20020;-66
2021/03/07 16:18:08;;;;;;;;;;;;;;;;;;4951376;29;19927;-67
2021/03/07 16:20:34;;;;;;;;;;;;;;;;;;4951195;29;20295;-65
2021/03/07 16:23:01;;;;;;;;;;;;;;;;;;4957007;28;19958;-66
2021/03/07 16:25:27;;;;;;;;;;;;;;;;;;4953917;28;20388;-66
2021/03/07 16:27:54;;;;;;;;;;;;;;;;;;4955925;28;19927;-65
2021/03/07 16:30:20;;;;;;;;;;;;;;;;;;4951933;28;19926;-65
2021/03/07 16:32:47;;;;;;;;;;;;;;;;;;4953073;28;20045;-66
2021/03/07 16:35:13;;;;;;;;;;;;;;;;;;4952777;28;19959;-65
2021/03/07 16:37:40;;;;;;;;;;;;;;;;;;4954372;28;20359;-65
2021/03/07 16:40:06;;;;;;;;;;;;;;;;;;4951464;29;20025;-65
2021/03/07 16:42:33;;;;;;;;;;;;;;;;;;4956135;28;19930;-65